Terminal Aerodrome Forecast
Issued by NWS North Platte, NE

Home | Current Version | Previous Version | Graphics & Text | Print | Product List | Glossary On
Versions: 1 2 3 4 5 6 7 8 9 10 11 12 13 14 15 16 17 18 19 20 21 22 23 24 25 26 27 28 29 30 31 32
006
FTUS43 KLBF 110521
TAFVTN
TAF
KVTN 110521Z 1106/1206 01008KT P6SM OVC008
     FM111500 17005KT P6SM OVC012
     FM111800 21007KT P6SM SCT025 BKN120
     FM112300 33010KT P6SM BKN120=

USA.gov is the U.S. government's official web portal to all federal, state and local government web resources and services.